Nissho Maru — JD2650 — position and weather

sailwx.info

Track history (hours):
 
Tides and Currents Weather Stations Pressure Air Temp Water Temp Dewpoint Dewpoint Depression Visibility Wind Speed Wind Dir Waves Ship Positions

Nissho Maru

Last reported at 2015-Sep-03 06:28 UTC. Time now 2015-Sep-03 06:51 UTC.
Position N 35°36' E 140°05'.

Length 75 m.

Type: Cargo ship. MMSI: 431000572.

Date/timePositionNaut miles runAvg speedWind from/ knotsBaromVisibWave heightAir tempDewpointWater temp
2015-Sep-03 06:28N 35°36' E 140°05'0 0.4
2015-Sep-03 05:33N 35°36' E 140°05'1211.6
2015-Sep-03 04:33N 35°30' E 139°54'1111.2
2015-Sep-03 03:33N 35°28' E 139°40'2 1.4
2015-Sep-03 02:31N 35°28' E 139°39'0 0.0
2015-Sep-03 01:31N 35°28' E 139°39'0 0.0
2015-Sep-03 00:31N 35°28' E 139°39'0 0.0
2015-Sep-02 23:31N 35°28' E 139°39'0 0.0
2015-Sep-02 22:31N 35°28' E 139°39'1 1.2
2015-Sep-02 21:34N 35°28' E 139°40'1 1.2
2015-Sep-02 20:32N 35°27' E 139°40'0 0.0
2015-Sep-02 19:32N 35°27' E 139°40'0 0.0
2015-Sep-02 18:32N 35°27' E 139°40'0 0.0
2015-Sep-02 17:32N 35°27' E 139°40'0 0.0
2015-Sep-02 16:32N 35°27' E 139°40'0 0.0
2015-Sep-02 15:32N 35°27' E 139°40'0 0.0
2015-Sep-02 14:32N 35°27' E 139°40'0 0.0
2015-Sep-02 13:32N 35°27' E 139°40'0 0.0
2015-Sep-02 12:32N 35°27' E 139°40'0 0.0
2015-Sep-02 11:32N 35°27' E 139°40'0 0.0
2015-Sep-02 10:32N 35°27' E 139°40'0 0.0
2015-Sep-02 09:32N 35°27' E 139°40'0 0.0
2015-Sep-02 08:32N 35°27' E 139°40'0 0.0
2015-Sep-02 07:32N 35°27' E 139°40'0 0.0
2015-Sep-02 06:32N 35°27' E 139°40'0 0.0
2015-Sep-02 05:32N 35°27' E 139°40'0 0.0
2015-Sep-02 04:32N 35°27' E 139°40'0 0.0
2015-Sep-02 03:32N 35°27' E 139°40'0 0.0
2015-Sep-02 02:32N 35°27' E 139°40'6 5.9
2015-Sep-02 01:33N 35°22' E 139°43'1111.0
2015-Sep-02 00:33N 35°11' E 139°47'1312.6
2015-Sep-01 23:33N 34°59' E 139°43'12 9.6
2015-Sep-01 22:15N 34°53' E 139°57'810.8
2015-Sep-01 21:28N 34°57' E 140°05'26 8.6
2015-Sep-01 18:29N 35°14' E 140°29'1110.6
2015-Sep-01 17:26N 35°23' E 140°37'1110.8
2015-Sep-01 16:25N 35°31' E 140°46'1010.6
2015-Sep-01 15:27N 35°39' E 140°54'  
2015-Aug-26 13:20N 35°44' E 140°56'810.8
2015-Aug-26 12:33N 35°36' E 140°52'1211.8
2015-Aug-26 11:33N 35°27' E 140°43'1411.9
2015-Aug-26 10:23N 35°16' E 140°32'2312.5
2015-Aug-26 08:33N 35°00' E 140°12'1410.6
2015-Aug-26 07:15N 34°53' E 139°58'7 9.7
2015-Aug-26 06:29N 34°52' E 139°49'1011.2
2015-Aug-26 05:33N 35°02' E 139°43'1212.2
2015-Aug-26 04:33N 35°14' E 139°46'1111.0
2015-Aug-26 03:33N 35°24' E 139°43'8 7.5
2015-Aug-26 02:32N 35°30' E 139°50'0 0.0
2015-Aug-26 01:32N 35°30' E 139°50'0 0.0
2015-Aug-26 00:32N 35°30' E 139°50'0 0.0
2015-Aug-25 23:32N 35°30' E 139°50'0 0.0
2015-Aug-25 22:32N 35°30' E 139°50'0 0.0
2015-Aug-25 21:32N 35°30' E 139°50'0 0.1
2015-Aug-25 20:32N 35°30' E 139°50'0 0.0
2015-Aug-25 19:32N 35°30' E 139°50'0 0.0
2015-Aug-25 18:32N 35°30' E 139°50'0 0.0
2015-Aug-25 17:32N 35°30' E 139°50'0 0.0
2015-Aug-25 16:32N 35°30' E 139°50'0 0.0
2015-Aug-25 15:32N 35°30' E 139°50'0 0.0
2015-Aug-25 14:32N 35°30' E 139°50'0 0.0
2015-Aug-25 13:32N 35°30' E 139°50'0 0.0
2015-Aug-25 12:32N 35°30' E 139°50'0 0.0
2015-Aug-25 11:32N 35°30' E 139°50'0 0.0
2015-Aug-25 10:32N 35°30' E 139°50'7 7.0
2015-Aug-25 09:33N 35°33' E 139°57'7 6.5
2015-Aug-25 08:28N 35°36' E 140°05'0 0.0
2015-Aug-25 07:28N 35°36' E 140°05'0 0.0
2015-Aug-25 06:28N 35°36' E 140°05'0 0.0
2015-Aug-25 05:28N 35°36' E 140°05'0 0.0
2015-Aug-25 04:28N 35°36' E 140°05'0 0.0
2015-Aug-25 03:22N 35°36' E 140°05'0 0.0
2015-Aug-25 02:28N 35°36' E 140°05'0 0.0
2015-Aug-25 01:28N 35°36' E 140°05'0 0.0
2015-Aug-25 00:22N 35°36' E 140°05'0 0.0
2015-Aug-24 23:16N 35°36' E 140°05'0 0.1
2015-Aug-24 22:28N 35°36' E 140°05'0 0.0
2015-Aug-24 21:22N 35°36' E 140°05'0 0.0
2015-Aug-24 19:22N 35°36' E 140°05'0 0.0
2015-Aug-24 18:16N 35°36' E 140°05'0 0.0
2015-Aug-24 17:28N 35°36' E 140°05'0 0.0
2015-Aug-24 16:28N 35°36' E 140°05'0 0.0
2015-Aug-24 15:22N 35°36' E 140°05'0 0.0
2015-Aug-24 14:10N 35°36' E 140°05'0 0.1
2015-Aug-24 13:28N 35°36' E 140°05'0 0.0
2015-Aug-24 12:28N 35°36' E 140°05'0 0.0
2015-Aug-24 11:28N 35°36' E 140°05'0 0.0
2015-Aug-24 10:16N 35°36' E 140°05'0 0.1
2015-Aug-24 09:28N 35°36' E 140°05'0 0.0
2015-Aug-24 08:31N 35°36' E 140°05'0 0.0
2015-Aug-24 07:31N 35°36' E 140°05'0 0.0
2015-Aug-24 06:31N 35°36' E 140°05'  
Track history (hours):
 
Tides and Currents Weather Stations Pressure Air Temp Water Temp Dewpoint Dewpoint Depression Visibility Wind Speed Wind Dir Waves Ship Positions

Nissho Maru

Last reported at 2015-Sep-03 06:28 UTC. Time now 2015-Sep-03 06:51 UTC.
Position N 35°36' E 140°05'.

Length 75 m.

Type: Cargo ship. MMSI: 431000572.

Date/timePositionNaut miles runAvg speedWind from/ knotsBaromVisibWave heightAir tempDewpointWater temp
2015-Sep-03 06:28N 35°36' E 140°05'0 0.4
2015-Sep-03 05:33N 35°36' E 140°05'1211.6
2015-Sep-03 04:33N 35°30' E 139°54'1111.2
2015-Sep-03 03:33N 35°28' E 139°40'2 1.4
2015-Sep-03 02:31N 35°28' E 139°39'0 0.0
2015-Sep-03 01:31N 35°28' E 139°39'0 0.0
2015-Sep-03 00:31N 35°28' E 139°39'0 0.0
2015-Sep-02 23:31N 35°28' E 139°39'0 0.0
2015-Sep-02 22:31N 35°28' E 139°39'1 1.2
2015-Sep-02 21:34N 35°28' E 139°40'1 1.2
2015-Sep-02 20:32N 35°27' E 139°40'0 0.0
2015-Sep-02 19:32N 35°27' E 139°40'0 0.0
2015-Sep-02 18:32N 35°27' E 139°40'0 0.0
2015-Sep-02 17:32N 35°27' E 139°40'0 0.0
2015-Sep-02 16:32N 35°27' E 139°40'0 0.0
2015-Sep-02 15:32N 35°27' E 139°40'0 0.0
2015-Sep-02 14:32N 35°27' E 139°40'0 0.0
2015-Sep-02 13:32N 35°27' E 139°40'0 0.0
2015-Sep-02 12:32N 35°27' E 139°40'0 0.0
2015-Sep-02 11:32N 35°27' E 139°40'0 0.0
2015-Sep-02 10:32N 35°27' E 139°40'0 0.0
2015-Sep-02 09:32N 35°27' E 139°40'0 0.0
2015-Sep-02 08:32N 35°27' E 139°40'0 0.0
2015-Sep-02 07:32N 35°27' E 139°40'0 0.0
2015-Sep-02 06:32N 35°27' E 139°40'0 0.0
2015-Sep-02 05:32N 35°27' E 139°40'0 0.0
2015-Sep-02 04:32N 35°27' E 139°40'0 0.0
2015-Sep-02 03:32N 35°27' E 139°40'0 0.0
2015-Sep-02 02:32N 35°27' E 139°40'6 5.9
2015-Sep-02 01:33N 35°22' E 139°43'1111.0
2015-Sep-02 00:33N 35°11' E 139°47'1312.6
2015-Sep-01 23:33N 34°59' E 139°43'12 9.6
2015-Sep-01 22:15N 34°53' E 139°57'810.8
2015-Sep-01 21:28N 34°57' E 140°05'26 8.6
2015-Sep-01 18:29N 35°14' E 140°29'1110.6
2015-Sep-01 17:26N 35°23' E 140°37'1110.8
2015-Sep-01 16:25N 35°31' E 140°46'1010.6
2015-Sep-01 15:27N 35°39' E 140°54'  
2015-Aug-26 13:20N 35°44' E 140°56'810.8
2015-Aug-26 12:33N 35°36' E 140°52'1211.8
2015-Aug-26 11:33N 35°27' E 140°43'1411.9
2015-Aug-26 10:23N 35°16' E 140°32'2312.5
2015-Aug-26 08:33N 35°00' E 140°12'1410.6
2015-Aug-26 07:15N 34°53' E 139°58'7 9.7
2015-Aug-26 06:29N 34°52' E 139°49'1011.2
2015-Aug-26 05:33N 35°02' E 139°43'1212.2
2015-Aug-26 04:33N 35°14' E 139°46'1111.0
2015-Aug-26 03:33N 35°24' E 139°43'8 7.5
2015-Aug-26 02:32N 35°30' E 139°50'0 0.0
2015-Aug-26 01:32N 35°30' E 139°50'0 0.0
2015-Aug-26 00:32N 35°30' E 139°50'0 0.0
2015-Aug-25 23:32N 35°30' E 139°50'0 0.0
2015-Aug-25 22:32N 35°30' E 139°50'0 0.0
2015-Aug-25 21:32N 35°30' E 139°50'0 0.1
2015-Aug-25 20:32N 35°30' E 139°50'0 0.0
2015-Aug-25 19:32N 35°30' E 139°50'0 0.0
2015-Aug-25 18:32N 35°30' E 139°50'0 0.0
2015-Aug-25 17:32N 35°30' E 139°50'0 0.0
2015-Aug-25 16:32N 35°30' E 139°50'0 0.0
2015-Aug-25 15:32N 35°30' E 139°50'0 0.0
2015-Aug-25 14:32N 35°30' E 139°50'0 0.0
2015-Aug-25 13:32N 35°30' E 139°50'0 0.0
2015-Aug-25 12:32N 35°30' E 139°50'0 0.0
2015-Aug-25 11:32N 35°30' E 139°50'0 0.0
2015-Aug-25 10:32N 35°30' E 139°50'7 7.0
2015-Aug-25 09:33N 35°33' E 139°57'7 6.5
2015-Aug-25 08:28N 35°36' E 140°05'0 0.0
2015-Aug-25 07:28N 35°36' E 140°05'0 0.0
2015-Aug-25 06:28N 35°36' E 140°05'0 0.0
2015-Aug-25 05:28N 35°36' E 140°05'0 0.0
2015-Aug-25 04:28N 35°36' E 140°05'0 0.0
2015-Aug-25 03:22N 35°36' E 140°05'0 0.0
2015-Aug-25 02:28N 35°36' E 140°05'0 0.0
2015-Aug-25 01:28N 35°36' E 140°05'0 0.0
2015-Aug-25 00:22N 35°36' E 140°05'0 0.0
2015-Aug-24 23:16N 35°36' E 140°05'0 0.1
2015-Aug-24 22:28N 35°36' E 140°05'0 0.0
2015-Aug-24 21:22N 35°36' E 140°05'0 0.0
2015-Aug-24 19:22N 35°36' E 140°05'0 0.0
2015-Aug-24 18:16N 35°36' E 140°05'0 0.0
2015-Aug-24 17:28N 35°36' E 140°05'0 0.0
2015-Aug-24 16:28N 35°36' E 140°05'0 0.0
2015-Aug-24 15:22N 35°36' E 140°05'0 0.0
2015-Aug-24 14:10N 35°36' E 140°05'0 0.1
2015-Aug-24 13:28N 35°36' E 140°05'0 0.0
2015-Aug-24 12:28N 35°36' E 140°05'0 0.0
2015-Aug-24 11:28N 35°36' E 140°05'0 0.0
2015-Aug-24 10:16N 35°36' E 140°05'0 0.1
2015-Aug-24 09:28N 35°36' E 140°05'0 0.0
2015-Aug-24 08:31N 35°36' E 140°05'0 0.0
2015-Aug-24 07:31N 35°36' E 140°05'0 0.0
2015-Aug-24 06:31N 35°36' E 140°05'  

Dump ship's entire track history